createdAt,value
2019-02-21T00:00:49.743Z,100450.00
2019-02-21T00:03:20.269Z,100460.00
2019-02-21T00:05:50.712Z,100454.00
2019-02-21T00:08:21.299Z,100460.00
2019-02-21T00:10:51.803Z,100461.00
2019-02-21T00:13:22.236Z,100464.00
2019-02-21T00:15:52.697Z,100465.00
2019-02-21T00:18:23.140Z,100464.00
2019-02-21T00:20:53.548Z,100464.00
2019-02-21T00:23:23.987Z,100469.00
2019-02-21T00:25:55.823Z,100474.00
2019-02-21T00:28:26.309Z,100476.00
2019-02-21T00:30:56.980Z,100477.00
2019-02-21T00:33:27.430Z,100470.00
2019-02-21T00:35:57.845Z,100483.00
2019-02-21T00:38:28.284Z,100481.00
2019-02-21T00:40:58.700Z,100475.00
2019-02-21T00:43:29.141Z,100485.00
2019-02-21T00:45:59.567Z,100478.00
2019-02-21T00:48:30.019Z,100481.00
2019-02-21T00:51:00.460Z,100486.00
2019-02-21T00:53:30.899Z,100483.00
2019-02-21T00:56:01.378Z,100487.00
2019-02-21T00:58:31.788Z,100485.00
2019-02-21T01:01:02.256Z,100476.00
2019-02-21T01:03:32.672Z,100476.00
2019-02-21T01:06:59.033Z,100474.00
2019-02-21T01:09:31.591Z,100479.00
2019-02-21T01:12:02.170Z,100479.00
2019-02-21T01:14:32.812Z,100478.00
2019-02-21T01:17:03.402Z,100477.00
2019-02-21T01:19:35.848Z,100481.00
2019-02-21T01:22:06.523Z,100478.00
2019-02-21T01:24:38.645Z,100479.00
2019-02-21T01:27:09.230Z,100483.00
2019-02-21T01:29:42.335Z,100479.00
2019-02-21T01:32:12.926Z,100485.00
2019-02-21T01:34:43.618Z,100486.00
2019-02-21T01:37:14.201Z,100480.00
2019-02-21T01:39:44.758Z,100476.00
2019-02-21T01:42:15.481Z,100472.00
2019-02-21T01:44:46.021Z,100459.00
2019-02-21T01:47:18.196Z,100471.00
2019-02-21T01:49:48.748Z,100474.00
2019-02-21T01:52:19.337Z,100468.00
2019-02-21T01:54:49.908Z,100472.00
2019-02-21T01:57:20.633Z,100468.00
2019-02-21T01:59:51.277Z,100462.00
2019-02-21T02:02:21.879Z,100467.00
2019-02-21T02:04:52.419Z,100466.00
2019-02-21T02:07:23.010Z,100464.00
2019-02-21T02:09:53.623Z,100456.00
2019-02-21T02:12:24.266Z,100459.00
2019-02-21T02:14:55.916Z,100454.00
2019-02-21T02:17:26.512Z,100464.00
2019-02-21T02:19:57.212Z,100461.00
2019-02-21T02:22:28.073Z,100458.00
2019-02-21T02:24:58.643Z,100454.00
2019-02-21T02:27:29.251Z,100451.00
2019-02-21T02:29:59.831Z,100452.00
2019-02-21T02:32:30.386Z,100444.00
2019-02-21T02:35:01.089Z,100452.00
2019-02-21T02:37:31.757Z,100454.00
2019-02-21T02:40:02.310Z,100451.00
2019-02-21T02:42:34.680Z,100446.00
2019-02-21T02:45:06.915Z,100446.00
2019-02-21T02:47:37.461Z,100438.00
2019-02-21T02:50:08.782Z,100432.00
2019-02-21T02:52:39.342Z,100434.00
2019-02-21T02:55:11.217Z,100433.00
2019-02-21T02:57:41.796Z,100424.00
2019-02-21T03:00:14.465Z,100423.00
2019-02-21T03:02:46.623Z,100419.00
2019-02-21T03:05:17.383Z,100423.00
2019-02-21T03:07:47.968Z,100427.00
2019-02-21T03:10:18.671Z,100421.00
2019-02-21T03:12:49.257Z,100440.00
2019-02-21T03:15:19.892Z,100440.00
2019-02-21T03:17:50.393Z,100439.00
2019-02-21T03:20:20.982Z,100437.00
2019-02-21T03:22:51.525Z,100435.00
2019-02-21T03:25:22.107Z,100443.00
2019-02-21T03:27:53.876Z,100438.00
2019-02-21T03:30:24.557Z,100444.00
2019-02-21T03:32:55.122Z,100440.00
2019-02-21T03:35:25.742Z,100439.00
2019-02-21T03:37:56.285Z,100442.00
2019-02-21T03:40:27.007Z,100439.00
2019-02-21T03:42:58.104Z,100443.00
2019-02-21T03:45:28.650Z,100437.00
2019-02-21T03:48:00.331Z,100436.00
2019-02-21T03:50:30.871Z,100443.00
2019-02-21T03:53:01.475Z,100450.00
2019-02-21T03:55:33.029Z,100444.00
2019-02-21T03:58:04.833Z,100449.00
2019-02-21T04:00:37.193Z,100455.00
2019-02-21T04:03:07.773Z,100461.00
2019-02-21T04:05:38.435Z,100457.00
2019-02-21T04:08:08.990Z,100455.00
2019-02-21T04:10:42.718Z,100458.00
2019-02-21T04:13:15.397Z,100451.00
2019-02-21T04:15:46.045Z,100453.00
2019-02-21T04:18:18.086Z,100444.00
2019-02-21T04:20:50.172Z,100447.00
2019-02-21T04:23:20.752Z,100443.00
2019-02-21T04:25:51.294Z,100454.00
2019-02-21T04:28:21.863Z,100457.00
2019-02-21T04:30:53.535Z,100463.00
2019-02-21T04:33:25.936Z,100468.00
2019-02-21T04:35:57.669Z,100479.00
2019-02-21T04:38:28.253Z,100467.00
2019-02-21T04:40:59.909Z,100468.00
2019-02-21T04:43:30.497Z,100466.00
2019-02-21T04:46:01.078Z,100466.00
2019-02-21T04:48:32.797Z,100465.00
2019-02-21T04:51:04.461Z,100469.00
2019-02-21T04:53:35.059Z,100467.00
2019-02-21T04:56:05.626Z,100467.00
2019-02-21T04:58:36.283Z,100463.00
2019-02-21T05:01:08.715Z,100476.00
2019-02-21T05:03:39.388Z,100466.00
2019-02-21T05:06:09.934Z,100469.00
2019-02-21T05:08:40.573Z,100462.00
2019-02-21T05:11:11.143Z,100453.00
2019-02-21T05:13:41.753Z,100456.00
2019-02-21T05:16:12.359Z,100449.00
2019-02-21T05:18:42.934Z,100460.00
2019-02-21T05:21:14.617Z,100456.00
2019-02-21T05:23:45.176Z,100457.00
2019-02-21T05:26:20.357Z,100464.00
2019-02-21T05:28:51.001Z,100457.00
2019-02-21T05:31:34.894Z,100454.00
2019-02-21T05:34:14.239Z,100451.00
2019-02-21T05:36:57.367Z,100456.00
2019-02-21T05:39:46.806Z,100455.00
2019-02-21T05:42:40.413Z,100456.00
2019-02-21T05:45:19.656Z,100456.00
2019-02-21T05:48:01.229Z,100465.00
2019-02-21T05:50:49.008Z,100474.00
2019-02-21T05:53:33.416Z,100466.00
2019-02-21T05:56:32.380Z,100471.00
2019-02-21T05:59:08.931Z,100475.00
2019-02-21T06:02:07.500Z,100474.00
2019-02-21T06:04:58.418Z,100477.00
2019-02-21T06:07:54.124Z,100472.00
2019-02-21T06:10:46.542Z,100480.00
2019-02-21T06:13:24.063Z,100482.00
2019-02-21T06:16:12.217Z,100484.00
2019-02-21T06:18:53.677Z,100478.00
2019-02-21T06:21:55.327Z,100479.00
2019-02-21T06:24:47.413Z,100469.00
2019-02-21T06:27:38.075Z,100464.00
2019-02-21T06:30:13.560Z,100454.00
2019-02-21T06:32:44.201Z,100451.00
2019-02-21T06:35:14.779Z,100463.00
2019-02-21T06:37:46.772Z,100455.00
2019-02-21T06:40:17.339Z,100456.00
2019-02-21T06:42:49.121Z,100457.00
2019-02-21T06:45:19.685Z,100468.00
2019-02-21T06:47:54.544Z,100459.00
2019-02-21T06:50:27.058Z,100476.00
2019-02-21T06:52:57.387Z,100465.00
2019-02-21T06:55:27.975Z,100471.00
2019-02-21T06:57:58.606Z,100468.00
2019-02-21T07:00:30.406Z,100462.00
2019-02-21T07:03:03.930Z,100474.00
2019-02-21T07:05:36.994Z,100461.00
2019-02-21T07:08:08.807Z,100466.00
2019-02-21T07:10:39.687Z,100476.00
2019-02-21T07:13:10.253Z,100464.00
2019-02-21T07:15:40.934Z,100459.00
2019-02-21T07:18:12.651Z,100452.00
2019-02-21T07:20:43.276Z,100456.00
2019-02-21T07:23:14.855Z,100456.00
2019-02-21T07:25:51.073Z,100451.00
2019-02-21T07:28:22.779Z,100459.00
2019-02-21T07:30:53.368Z,100458.00
2019-02-21T07:33:28.413Z,100468.00
2019-02-21T07:35:56.223Z,100473.00
2019-02-21T07:38:26.886Z,100466.00
2019-02-21T07:40:58.697Z,100471.00
2019-02-21T07:43:29.255Z,100472.00
2019-02-21T07:45:59.909Z,100474.00
2019-02-21T07:48:31.682Z,100475.00
2019-02-21T07:51:02.280Z,100480.00
2019-02-21T07:53:36.151Z,100482.00
2019-02-21T07:56:06.735Z,100485.00
2019-02-21T07:58:39.539Z,100482.00
2019-02-21T08:01:09.720Z,100488.00
2019-02-21T08:03:45.933Z,100477.00
2019-02-21T08:06:15.677Z,100490.00
2019-02-21T08:08:46.293Z,100486.00
2019-02-21T08:11:17.107Z,100481.00
2019-02-21T08:13:47.690Z,100480.00
2019-02-21T08:16:18.343Z,100477.00
2019-02-21T08:18:50.335Z,100492.00
2019-02-21T08:21:20.931Z,100493.00
2019-02-21T08:23:51.695Z,100491.00
2019-02-21T08:26:22.356Z,100496.00
2019-02-21T08:28:52.957Z,100501.00
2019-02-21T08:31:23.542Z,100506.00
2019-02-21T08:34:06.014Z,100504.00
2019-02-21T08:36:38.267Z,100511.00
2019-02-21T08:39:11.403Z,100505.00
2019-02-21T08:41:42.222Z,100508.00
2019-02-21T08:44:14.300Z,100510.00
2019-02-21T08:46:45.001Z,100505.00
2019-02-21T08:49:16.647Z,100497.00
2019-02-21T08:51:47.227Z,100495.00
2019-02-21T08:54:19.635Z,100500.00
2019-02-21T08:56:50.223Z,100504.00
2019-02-21T08:59:21.914Z,100502.00
2019-02-21T09:02:11.552Z,100506.00
2019-02-21T09:04:42.167Z,100504.00
2019-02-21T09:07:14.418Z,100505.00
2019-02-21T09:09:46.126Z,100504.00
2019-02-21T09:12:16.682Z,100511.00
2019-02-21T09:14:47.337Z,100503.00
2019-02-21T09:17:18.039Z,100504.00
2019-02-21T09:19:48.666Z,100507.00
2019-02-21T09:22:19.259Z,100509.00
2019-02-21T09:24:49.975Z,100508.00
2019-02-21T09:27:20.535Z,100518.00
2019-02-21T09:29:52.718Z,100509.00
2019-02-21T09:32:23.444Z,100519.00
2019-02-21T09:34:54.697Z,100526.00
2019-02-21T09:37:25.571Z,100525.00
2019-02-21T09:39:56.164Z,100526.00
2019-02-21T09:42:26.792Z,100528.00
2019-02-21T09:44:57.406Z,100526.00
2019-02-21T09:47:30.861Z,100520.00
2019-02-21T09:50:00.657Z,100544.00
2019-02-21T09:52:31.265Z,100526.00
2019-02-21T09:55:03.128Z,100527.00
2019-02-21T09:57:35.325Z,100532.00
2019-02-21T10:00:10.909Z,100529.00
2019-02-21T10:02:42.170Z,100526.00
2019-02-21T10:05:13.568Z,100526.00
2019-02-21T10:07:45.517Z,100530.00
2019-02-21T10:10:18.027Z,100522.00
2019-02-21T10:12:49.906Z,100528.00
2019-02-21T10:15:22.466Z,100533.00
2019-02-21T10:17:55.927Z,100536.00
2019-02-21T10:20:26.616Z,100538.00
2019-02-21T10:22:57.214Z,100530.00
2019-02-21T10:25:28.448Z,100532.00
2019-02-21T10:28:00.556Z,100527.00
2019-02-21T10:30:31.156Z,100538.00
2019-02-21T10:33:01.885Z,100537.00
2019-02-21T10:35:32.447Z,100535.00
2019-02-21T10:38:03.043Z,100541.00
2019-02-21T10:40:34.912Z,100536.00
2019-02-21T10:43:05.577Z,100537.00
2019-02-21T10:45:47.064Z,100535.00
2019-02-21T10:48:08.520Z,100533.00
2019-02-21T10:50:40.586Z,100528.00
2019-02-21T10:53:11.197Z,100528.00
2019-02-21T10:55:44.256Z,100515.00
2019-02-21T10:58:14.975Z,100514.00
2019-02-21T11:00:47.005Z,100509.00
2019-02-21T11:03:17.718Z,100510.00
2019-02-21T11:05:48.443Z,100504.00
2019-02-21T11:08:19.146Z,100504.00
2019-02-21T11:10:51.450Z,100494.00
2019-02-21T11:13:22.132Z,100493.00
2019-02-21T11:15:52.836Z,100493.00
2019-02-21T11:18:23.531Z,100484.00
2019-02-21T11:20:54.585Z,100489.00
2019-02-21T11:23:26.269Z,100489.00
2019-02-21T11:25:56.900Z,100484.00
2019-02-21T11:28:27.652Z,100488.00
2019-02-21T11:31:00.032Z,100486.00
2019-02-21T11:33:30.952Z,100476.00
2019-02-21T11:36:01.575Z,100471.00
2019-02-21T11:38:32.256Z,100472.00
2019-02-21T11:41:03.098Z,100473.00
2019-02-21T11:43:34.914Z,100458.00
2019-02-21T11:46:06.706Z,100459.00
2019-02-21T11:48:37.311Z,100459.00
2019-02-21T11:51:08.259Z,100456.00
2019-02-21T11:53:38.943Z,100447.00
2019-02-21T11:56:10.193Z,100445.00
2019-02-21T11:58:40.852Z,100451.00
2019-02-21T12:01:13.918Z,100455.00
2019-02-21T12:03:45.992Z,100448.00
2019-02-21T12:06:17.924Z,100442.00
2019-02-21T12:08:49.669Z,100438.00
2019-02-21T12:11:20.497Z,100439.00
2019-02-21T12:13:51.105Z,100433.00
2019-02-21T12:16:24.192Z,100441.00
2019-02-21T12:18:54.875Z,100422.00
2019-02-21T12:21:25.576Z,100425.00
2019-02-21T12:23:56.170Z,100429.00
2019-02-21T12:26:28.364Z,100416.00
2019-02-21T12:29:00.745Z,100418.00
2019-02-21T12:31:31.382Z,100418.00
2019-02-21T12:34:02.010Z,100423.00
2019-02-21T12:36:33.759Z,100422.00
2019-02-21T12:39:05.448Z,100418.00
2019-02-21T12:41:36.245Z,100418.00
2019-02-21T12:44:06.859Z,100413.00
2019-02-21T12:46:38.585Z,100412.00
2019-02-21T12:49:10.735Z,100401.00
2019-02-21T12:51:41.488Z,100407.00
2019-02-21T12:54:12.201Z,100403.00
2019-02-21T12:56:42.927Z,100406.00
2019-02-21T12:59:13.594Z,100396.00
2019-02-21T13:01:44.268Z,100404.00
2019-02-21T13:04:18.619Z,100390.00
2019-02-21T13:06:49.218Z,100389.00
2019-02-21T13:09:19.825Z,100382.00
2019-02-21T13:11:51.654Z,100377.00
2019-02-21T13:14:25.573Z,100369.00
2019-02-21T13:16:56.412Z,100373.00
2019-02-21T13:19:26.940Z,100370.00
2019-02-21T13:21:57.619Z,100365.00
2019-02-21T13:24:28.272Z,100371.00
2019-02-21T13:26:58.965Z,100367.00
2019-02-21T13:29:29.553Z,100371.00
2019-02-21T13:32:00.373Z,100371.00
2019-02-21T13:34:31.022Z,100383.00
2019-02-21T13:37:01.685Z,100385.00
2019-02-21T13:39:33.370Z,100391.00
2019-02-21T13:42:05.430Z,100382.00
2019-02-21T13:44:36.081Z,100389.00
2019-02-21T13:47:06.983Z,100379.00
2019-02-21T13:49:39.475Z,100387.00
2019-02-21T13:52:10.235Z,100384.00
2019-02-21T13:54:42.307Z,100385.00
2019-02-21T13:57:12.888Z,100383.00
2019-02-21T13:59:44.777Z,100376.00
2019-02-21T14:02:15.496Z,100388.00
2019-02-21T14:04:46.109Z,100385.00
2019-02-21T14:07:16.696Z,100395.00
2019-02-21T14:09:47.325Z,100401.00
2019-02-21T14:12:18.987Z,100399.00
2019-02-21T14:14:51.087Z,100408.00
2019-02-21T14:17:21.967Z,100406.00
2019-02-21T14:19:53.159Z,100401.00
2019-02-21T14:22:23.894Z,100405.00
2019-02-21T14:24:56.070Z,100405.00
2019-02-21T14:27:26.649Z,100410.00
2019-02-21T14:29:57.246Z,100407.00
2019-02-21T14:32:27.804Z,100405.00
2019-02-21T14:34:58.538Z,100404.00
2019-02-21T14:37:29.188Z,100399.00
2019-02-21T14:39:59.922Z,100392.00
2019-02-21T14:42:30.481Z,100396.00
2019-02-21T14:45:02.581Z,100394.00
2019-02-21T14:47:52.269Z,100402.00
2019-02-21T14:50:23.061Z,100399.00
2019-02-21T14:52:55.086Z,100389.00
2019-02-21T14:55:25.683Z,100395.00
2019-02-21T14:57:58.772Z,100394.00
2019-02-21T15:00:29.429Z,100392.00
2019-02-21T15:03:00.028Z,100391.00
2019-02-21T15:05:30.631Z,100388.00
2019-02-21T15:08:01.214Z,100388.00
2019-02-21T15:10:31.866Z,100387.00
2019-02-21T15:13:02.574Z,100380.00
2019-02-21T15:15:33.262Z,100380.00
2019-02-21T15:18:07.384Z,100389.00
2019-02-21T15:20:37.257Z,100387.00
2019-02-21T15:23:09.143Z,100378.00
2019-02-21T15:25:42.743Z,100382.00
2019-02-21T15:28:14.606Z,100387.00
2019-02-21T15:30:45.289Z,100383.00
2019-02-21T15:33:15.937Z,100389.00
2019-02-21T15:35:46.829Z,100385.00
2019-02-21T15:38:20.274Z,100380.00
2019-02-21T15:40:52.168Z,100382.00
2019-02-21T15:43:22.819Z,100386.00
2019-02-21T15:45:53.431Z,100380.00
2019-02-21T15:48:25.879Z,100381.00
2019-02-21T15:50:56.500Z,100393.00
2019-02-21T15:53:27.416Z,100386.00
2019-02-21T15:55:57.992Z,100393.00
2019-02-21T15:58:28.651Z,100393.00
2019-02-21T16:01:00.400Z,100389.00
2019-02-21T16:03:31.006Z,100400.00
2019-02-21T16:06:01.693Z,100389.00
2019-02-21T16:08:32.275Z,100402.00
2019-02-21T16:11:04.127Z,100402.00
2019-02-21T16:13:36.930Z,100404.00
2019-02-21T16:16:07.976Z,100401.00
2019-02-21T16:18:39.792Z,100401.00
2019-02-21T16:21:13.265Z,100400.00
2019-02-21T16:23:43.980Z,100418.00
2019-02-21T16:26:16.085Z,100416.00
2019-02-21T16:28:46.828Z,100417.00
2019-02-21T16:31:17.398Z,100418.00
2019-02-21T16:33:48.002Z,100418.00
2019-02-21T16:36:18.567Z,100412.00
2019-02-21T16:38:49.308Z,100410.00
2019-02-21T16:41:20.302Z,100416.00
2019-02-21T16:43:52.031Z,100422.00
2019-02-21T16:46:24.785Z,100417.00
2019-02-21T16:48:57.054Z,100420.00
2019-02-21T16:51:27.726Z,100426.00
2019-02-21T16:53:58.477Z,100428.00
2019-02-21T16:56:29.138Z,100430.00
2019-02-21T16:58:59.833Z,100433.00
2019-02-21T17:01:30.490Z,100437.00
2019-02-21T17:04:02.859Z,100439.00
2019-02-21T17:06:33.439Z,100433.00
2019-02-21T17:09:06.482Z,100443.00
2019-02-21T17:11:37.079Z,100446.00
2019-02-21T17:14:09.131Z,100449.00
2019-02-21T17:16:39.739Z,100444.00
2019-02-21T17:19:10.459Z,100450.00
2019-02-21T17:21:41.113Z,100450.00
2019-02-21T17:24:11.818Z,100450.00
2019-02-21T17:26:43.496Z,100457.00
2019-02-21T17:29:15.543Z,100456.00
2019-02-21T17:31:47.348Z,100461.00
2019-02-21T17:34:17.894Z,100465.00
2019-02-21T17:36:48.599Z,100461.00
2019-02-21T17:39:19.160Z,100464.00
2019-02-21T17:41:49.737Z,100475.00
2019-02-21T17:44:20.779Z,100467.00
2019-02-21T17:46:51.389Z,100476.00
2019-02-21T17:49:22.008Z,100475.00
2019-02-21T17:51:53.872Z,100476.00
2019-02-21T17:54:25.190Z,100470.00
2019-02-21T17:56:57.136Z,100472.00
2019-02-21T17:59:27.802Z,100476.00
2019-02-21T18:01:59.736Z,100464.00
2019-02-21T18:04:30.335Z,100471.00
2019-02-21T18:07:00.938Z,100462.00
2019-02-21T18:09:31.517Z,100459.00
2019-02-21T18:12:02.282Z,100460.00
2019-02-21T18:14:32.871Z,100455.00
2019-02-21T18:17:03.579Z,100462.00
2019-02-21T18:19:34.277Z,100454.00
2019-02-21T18:22:05.894Z,100456.00
2019-02-21T18:24:36.540Z,100453.00
2019-02-21T18:27:08.296Z,100450.00
2019-02-21T18:29:40.089Z,100454.00
2019-02-21T18:32:10.678Z,100453.00
2019-02-21T18:34:41.240Z,100451.00
2019-02-21T18:37:13.685Z,100455.00
2019-02-21T18:39:44.250Z,100451.00
2019-02-21T18:42:16.474Z,100448.00
2019-02-21T18:44:47.168Z,100446.00
2019-02-21T18:47:17.880Z,100444.00
2019-02-21T18:49:48.446Z,100441.00
2019-02-21T18:52:19.104Z,100442.00
2019-02-21T18:54:50.755Z,100446.00
2019-02-21T18:57:21.531Z,100433.00
2019-02-21T18:59:53.575Z,100453.00
2019-02-21T19:02:24.223Z,100443.00
2019-02-21T19:04:54.982Z,100439.00
2019-02-21T19:07:25.656Z,100451.00
2019-02-21T19:09:56.354Z,100444.00
2019-02-21T19:12:27.253Z,100448.00
2019-02-21T19:14:58.037Z,100438.00
2019-02-21T19:17:29.839Z,100436.00
2019-02-21T19:20:00.527Z,100435.00
2019-02-21T19:22:32.331Z,100431.00
2019-02-21T19:25:03.032Z,100421.00
2019-02-21T19:27:37.167Z,100416.00
2019-02-21T19:30:14.617Z,100427.00
2019-02-21T19:32:46.586Z,100415.00
2019-02-21T19:35:17.656Z,100424.00
2019-02-21T19:37:48.278Z,100430.00
2019-02-21T19:40:18.841Z,100434.00
2019-02-21T19:42:49.471Z,100432.00
2019-02-21T19:45:20.106Z,100427.00
2019-02-21T19:47:52.232Z,100428.00
2019-02-21T19:50:23.073Z,100437.00
2019-02-21T19:52:53.796Z,100434.00
2019-02-21T19:55:24.665Z,100428.00
2019-02-21T19:57:55.297Z,100429.00
2019-02-21T20:00:26.822Z,100425.00
2019-02-21T20:02:57.428Z,100432.00
2019-02-21T20:05:28.542Z,100440.00
2019-02-21T20:08:08.286Z,100440.00
2019-02-21T20:10:31.746Z,100434.00
2019-02-21T20:13:03.615Z,100437.00
2019-02-21T20:15:34.416Z,100434.00
2019-02-21T20:18:05.130Z,100440.00
2019-02-21T20:20:36.968Z,100437.00
2019-02-21T20:23:07.549Z,100441.00
2019-02-21T20:25:38.159Z,100456.00
2019-02-21T20:28:09.084Z,100447.00
2019-02-21T20:30:40.809Z,100441.00
2019-02-21T20:33:12.943Z,100449.00
2019-02-21T20:35:43.531Z,100443.00
2019-02-21T20:38:16.558Z,100449.00
2019-02-21T20:40:47.246Z,100444.00
2019-02-21T20:43:17.905Z,100450.00
2019-02-21T20:45:52.926Z,100446.00
2019-02-21T20:48:21.845Z,100457.00
2019-02-21T20:50:56.950Z,100459.00
2019-02-21T20:53:24.821Z,100453.00
2019-02-21T20:55:55.532Z,100450.00
2019-02-21T20:58:26.131Z,100452.00
2019-02-21T21:00:56.859Z,100461.00
2019-02-21T21:03:27.429Z,100457.00
2019-02-21T21:05:58.029Z,100454.00
2019-02-21T21:08:28.631Z,100460.00
2019-02-21T21:10:59.240Z,100463.00
2019-02-21T21:13:29.768Z,100466.00
2019-02-21T21:16:00.389Z,100464.00
2019-02-21T21:18:30.952Z,100468.00
2019-02-21T21:21:01.569Z,100472.00
2019-02-21T21:23:32.117Z,100478.00
2019-02-21T21:26:02.771Z,100481.00
2019-02-21T21:28:33.474Z,100476.00
2019-02-21T21:31:04.056Z,100470.00
2019-02-21T21:33:34.897Z,100478.00
2019-02-21T21:36:06.630Z,100480.00
2019-02-21T21:38:38.678Z,100479.00
2019-02-21T21:41:10.878Z,100477.00
2019-02-21T21:43:41.456Z,100474.00
2019-02-21T21:46:13.333Z,100480.00
2019-02-21T21:48:43.921Z,100474.00
2019-02-21T21:51:15.657Z,100472.00
2019-02-21T21:53:46.345Z,100467.00
2019-02-21T21:56:17.023Z,100465.00
2019-02-21T21:58:47.624Z,100469.00
2019-02-21T22:01:21.849Z,100460.00
2019-02-21T22:03:52.581Z,100469.00
2019-02-21T22:06:26.265Z,100469.00
2019-02-21T22:09:04.771Z,100471.00
2019-02-21T22:11:31.892Z,100467.00
2019-02-21T22:14:02.463Z,100472.00
2019-02-21T22:16:33.067Z,100468.00
2019-02-21T22:19:03.650Z,100470.00
2019-02-21T22:21:34.347Z,100470.00
2019-02-21T22:24:04.950Z,100469.00
2019-02-21T22:26:35.627Z,100468.00
2019-02-21T22:29:08.036Z,100462.00
2019-02-21T22:31:38.607Z,100465.00
2019-02-21T22:34:10.305Z,100461.00
2019-02-21T22:36:40.862Z,100472.00
2019-02-21T22:39:16.417Z,100462.00
2019-02-21T22:41:44.995Z,100471.00
2019-02-21T22:44:15.651Z,100468.00
2019-02-21T22:46:47.447Z,100464.00
2019-02-21T22:49:18.076Z,100465.00
2019-02-21T22:51:48.627Z,100468.00
2019-02-21T22:54:19.401Z,100468.00
2019-02-21T22:56:50.194Z,100464.00
2019-02-21T22:59:21.911Z,100473.00
2019-02-21T23:01:53.693Z,100476.00
2019-02-21T23:05:23.287Z,100474.00
2019-02-21T23:08:52.028Z,100482.00
2019-02-21T23:11:23.269Z,100476.00
2019-02-21T23:13:54.807Z,100469.00
2019-02-21T23:16:25.633Z,100477.00
2019-02-21T23:18:56.284Z,100484.00
2019-02-21T23:21:27.006Z,100472.00
2019-02-21T23:23:57.569Z,100476.00
2019-02-21T23:26:29.619Z,100476.00
2019-02-21T23:29:02.009Z,100480.00
2019-02-21T23:31:32.638Z,100484.00
2019-02-21T23:34:03.691Z,100476.00
2019-02-21T23:36:34.485Z,100479.00
2019-02-21T23:39:05.404Z,100489.00
2019-02-21T23:41:35.989Z,100489.00
2019-02-21T23:44:06.541Z,100491.00
2019-02-21T23:46:38.685Z,100484.00
2019-02-21T23:49:09.236Z,100489.00
2019-02-21T23:51:39.820Z,100488.00
2019-02-21T23:54:11.631Z,100487.00
2019-02-21T23:56:42.242Z,100494.00
2019-02-21T23:59:12.839Z,100492.00
